createdAt,value
2019-05-19T00:01:55.351Z,26.53
2019-05-19T00:04:23.653Z,29.33
2019-05-19T00:06:51.839Z,29.80
2019-05-19T00:09:20.208Z,27.93
2019-05-19T00:11:48.440Z,23.60
2019-05-19T00:14:16.686Z,26.00
2019-05-19T00:16:44.923Z,26.53
2019-05-19T00:19:25.824Z,28.23
2019-05-19T00:21:43.053Z,29.73
2019-05-19T00:24:11.306Z,33.57
2019-05-19T00:26:39.475Z,29.93
2019-05-19T00:29:07.646Z,27.17
2019-05-19T00:31:35.943Z,25.57
2019-05-19T00:34:04.201Z,26.37
2019-05-19T00:36:32.438Z,25.00
2019-05-19T00:39:00.686Z,27.20
2019-05-19T00:41:28.851Z,26.17
2019-05-19T00:43:57.094Z,27.30
2019-05-19T00:46:25.410Z,28.00
2019-05-19T00:48:53.657Z,27.20
2019-05-19T00:51:22.091Z,27.50
2019-05-19T00:53:50.341Z,28.87
2019-05-19T00:56:18.746Z,26.33
2019-05-19T00:58:47.158Z,27.93
2019-05-19T01:01:15.326Z,26.93
2019-05-19T01:03:43.595Z,26.93
2019-05-19T01:06:11.826Z,24.93
2019-05-19T01:08:40.056Z,25.80
2019-05-19T01:11:08.305Z,30.30
2019-05-19T01:13:36.545Z,29.07
2019-05-19T01:16:04.867Z,26.67
2019-05-19T01:18:33.100Z,25.63
2019-05-19T01:21:01.520Z,28.33
2019-05-19T01:23:29.765Z,25.03
2019-05-19T01:25:58.025Z,27.43
2019-05-19T01:28:26.248Z,23.73
2019-05-19T01:30:54.516Z,24.27
2019-05-19T01:33:22.815Z,28.07
2019-05-19T01:35:51.069Z,28.63
2019-05-19T01:38:19.427Z,29.00
2019-05-19T01:40:47.690Z,31.77
2019-05-19T01:43:15.925Z,33.50
2019-05-19T01:45:44.238Z,29.13
2019-05-19T01:48:12.467Z,30.07
2019-05-19T01:50:40.706Z,23.17
2019-05-19T01:53:08.945Z,28.20
2019-05-19T01:55:37.123Z,26.37
2019-05-19T01:58:05.363Z,23.73
2019-05-19T02:00:33.606Z,28.77
2019-05-19T02:03:01.849Z,28.87
2019-05-19T02:05:30.105Z,31.57
2019-05-19T02:07:58.330Z,29.83
2019-05-19T02:10:26.574Z,32.33
2019-05-19T02:12:54.816Z,28.60
2019-05-19T02:15:23.236Z,30.17
2019-05-19T02:17:51.458Z,28.07
2019-05-19T02:20:32.054Z,25.27
2019-05-19T02:22:49.765Z,26.90
2019-05-19T02:25:18.473Z,28.33
2019-05-19T02:27:46.715Z,28.63
2019-05-19T02:30:15.030Z,30.67
2019-05-19T02:32:43.258Z,25.93
2019-05-19T02:35:11.663Z,28.53
2019-05-19T02:37:40.031Z,28.70
2019-05-19T02:40:08.355Z,30.53
2019-05-19T02:42:38.135Z,31.47
2019-05-19T02:45:06.935Z,26.23
2019-05-19T02:47:35.457Z,32.50
2019-05-19T02:50:04.258Z,27.57
2019-05-19T02:52:33.174Z,31.53
2019-05-19T02:55:01.875Z,27.37
2019-05-19T02:57:31.594Z,26.10
2019-05-19T03:00:00.799Z,25.90
2019-05-19T03:02:29.055Z,24.63
2019-05-19T03:04:57.279Z,25.23
2019-05-19T03:07:25.555Z,26.77
2019-05-19T03:09:53.875Z,28.30
2019-05-19T03:12:22.118Z,24.40
2019-05-19T03:14:50.356Z,25.97
2019-05-19T03:17:18.598Z,24.37
2019-05-19T03:19:46.756Z,26.90
2019-05-19T03:22:15.004Z,29.17
2019-05-19T03:24:43.244Z,27.27
2019-05-19T03:27:11.494Z,25.67
2019-05-19T03:29:41.369Z,30.13
2019-05-19T03:32:27.490Z,24.40
2019-05-19T03:34:55.735Z,22.53
2019-05-19T03:37:23.950Z,25.17
2019-05-19T03:39:52.185Z,27.87
2019-05-19T03:42:20.443Z,25.30
2019-05-19T03:44:48.688Z,26.63
2019-05-19T03:47:16.944Z,21.33
2019-05-19T03:49:45.182Z,24.47
2019-05-19T03:52:13.418Z,22.80
2019-05-19T03:54:41.581Z,23.60
2019-05-19T03:57:09.821Z,27.57
2019-05-19T03:59:38.129Z,22.33
2019-05-19T04:02:06.350Z,21.10
2019-05-19T04:04:34.608Z,22.13
2019-05-19T04:07:02.816Z,22.23
2019-05-19T04:09:30.993Z,23.37
2019-05-19T04:11:59.240Z,23.30
2019-05-19T04:14:27.473Z,21.00
2019-05-19T04:16:55.781Z,20.83
2019-05-19T04:19:24.030Z,18.63
2019-05-19T04:21:52.259Z,20.27
2019-05-19T04:24:20.533Z,22.33
2019-05-19T04:26:48.776Z,19.03
2019-05-19T04:29:17.034Z,19.27
2019-05-19T04:31:45.323Z,20.70
2019-05-19T04:34:13.568Z,27.77
2019-05-19T04:36:41.804Z,21.17
2019-05-19T04:39:10.095Z,19.13
2019-05-19T04:41:40.283Z,18.93
2019-05-19T04:44:08.382Z,19.27
2019-05-19T04:46:36.620Z,18.43
2019-05-19T04:49:04.869Z,19.53
2019-05-19T04:51:33.110Z,20.03
2019-05-19T04:54:01.356Z,18.13
2019-05-19T04:56:29.599Z,18.53
2019-05-19T04:58:57.837Z,25.17
2019-05-19T05:01:26.086Z,20.87
2019-05-19T05:03:54.322Z,21.73
2019-05-19T05:06:22.560Z,22.13
2019-05-19T05:08:50.824Z,19.93
2019-05-19T05:11:19.077Z,23.47
2019-05-19T05:13:47.355Z,20.47
2019-05-19T05:16:15.562Z,23.10
2019-05-19T05:18:43.844Z,23.43
2019-05-19T05:21:12.074Z,18.97
2019-05-19T05:23:40.311Z,18.67
2019-05-19T05:26:08.576Z,16.07
2019-05-19T05:28:36.858Z,19.10
2019-05-19T05:31:05.064Z,18.93
2019-05-19T05:33:33.321Z,19.40
2019-05-19T05:36:01.653Z,18.57
2019-05-19T05:38:29.878Z,18.67
2019-05-19T05:40:58.143Z,22.27
2019-05-19T05:43:26.375Z,16.63
2019-05-19T05:45:54.636Z,17.77
2019-05-19T05:48:23.288Z,15.73
2019-05-19T05:50:51.535Z,15.90
2019-05-19T05:53:19.769Z,15.80
2019-05-19T05:55:47.969Z,17.60
2019-05-19T05:58:16.212Z,16.43
2019-05-19T06:00:44.527Z,17.20
2019-05-19T06:03:12.762Z,14.90
2019-05-19T06:05:41.012Z,15.70
2019-05-19T06:08:09.361Z,15.87
2019-05-19T06:10:37.545Z,16.40
2019-05-19T06:13:05.783Z,13.80
2019-05-19T06:15:34.025Z,14.67
2019-05-19T06:18:02.336Z,14.70
2019-05-19T06:20:30.860Z,14.43
2019-05-19T06:22:59.237Z,13.83
2019-05-19T06:25:27.929Z,14.80
2019-05-19T06:27:56.251Z,15.00
2019-05-19T06:30:43.984Z,14.67
2019-05-19T06:33:12.211Z,14.87
2019-05-19T06:35:40.460Z,13.90
2019-05-19T06:38:08.693Z,14.53
2019-05-19T06:40:36.958Z,13.47
2019-05-19T06:43:05.356Z,14.43
2019-05-19T06:45:33.621Z,14.03
2019-05-19T06:48:01.842Z,11.07
2019-05-19T06:50:30.074Z,11.70
2019-05-19T06:53:12.833Z,11.67
2019-05-19T06:55:28.508Z,10.13
2019-05-19T06:57:56.783Z,9.53
2019-05-19T07:00:25.028Z,9.97
2019-05-19T07:02:53.266Z,9.40
2019-05-19T07:05:21.496Z,9.53
2019-05-19T07:07:49.741Z,10.27
2019-05-19T07:10:17.961Z,9.13
2019-05-19T07:12:46.226Z,9.13
2019-05-19T07:15:15.533Z,9.23
2019-05-19T07:17:44.040Z,9.00
2019-05-19T07:20:12.417Z,10.10
2019-05-19T07:22:40.671Z,9.17
2019-05-19T07:25:09.201Z,8.13
2019-05-19T07:27:37.534Z,8.60
2019-05-19T07:30:06.032Z,9.13
2019-05-19T07:32:34.305Z,8.00
2019-05-19T07:35:02.524Z,8.40
2019-05-19T07:37:30.782Z,8.53
2019-05-19T07:39:59.007Z,8.90
2019-05-19T07:42:27.302Z,8.63
2019-05-19T07:44:55.623Z,8.57
2019-05-19T07:47:23.816Z,8.30
2019-05-19T07:49:52.071Z,9.17
2019-05-19T07:52:20.288Z,9.20
2019-05-19T07:54:48.536Z,8.97
2019-05-19T07:57:16.770Z,9.20
2019-05-19T07:59:45.031Z,9.00
2019-05-19T08:02:13.256Z,8.83
2019-05-19T08:04:41.497Z,9.37
2019-05-19T08:07:09.744Z,9.77
2019-05-19T08:09:37.970Z,9.87
2019-05-19T08:12:06.127Z,9.13
2019-05-19T08:14:34.370Z,10.77
2019-05-19T08:17:02.603Z,10.10
2019-05-19T08:19:30.869Z,9.30
2019-05-19T08:21:59.030Z,9.60
2019-05-19T08:24:27.258Z,9.00
2019-05-19T08:26:55.558Z,8.83
2019-05-19T08:29:23.798Z,10.40
2019-05-19T08:31:51.979Z,9.40
2019-05-19T08:34:20.228Z,9.83
2019-05-19T08:36:48.558Z,9.37
2019-05-19T08:39:16.798Z,10.47
2019-05-19T08:41:45.427Z,9.67
2019-05-19T08:44:13.639Z,9.10
2019-05-19T08:46:41.800Z,9.37
2019-05-19T08:49:10.054Z,9.53
2019-05-19T08:51:38.388Z,9.13
2019-05-19T08:54:14.274Z,9.17
2019-05-19T08:56:36.587Z,8.70
2019-05-19T08:59:04.818Z,9.57
2019-05-19T09:01:33.380Z,9.97
2019-05-19T09:04:01.776Z,9.70
2019-05-19T09:06:30.035Z,9.70
2019-05-19T09:08:58.283Z,9.90
2019-05-19T09:11:26.560Z,9.83
2019-05-19T09:13:54.814Z,9.33
2019-05-19T09:16:23.037Z,9.40
2019-05-19T09:18:51.294Z,9.77
2019-05-19T09:21:19.533Z,9.00
2019-05-19T09:23:47.799Z,8.77
2019-05-19T09:26:16.018Z,8.73
2019-05-19T09:28:44.241Z,8.80
2019-05-19T09:31:12.501Z,8.90
2019-05-19T09:33:40.734Z,8.63
2019-05-19T09:36:08.976Z,8.77
2019-05-19T09:38:37.203Z,9.23
2019-05-19T09:41:05.452Z,9.00
2019-05-19T09:43:33.682Z,8.43
2019-05-19T09:46:01.935Z,9.23
2019-05-19T09:48:30.697Z,8.50
2019-05-19T09:50:58.934Z,9.13
2019-05-19T09:53:27.075Z,8.17
2019-05-19T09:55:55.337Z,8.83
2019-05-19T09:58:23.566Z,8.90
2019-05-19T10:00:51.974Z,8.87
2019-05-19T10:03:20.226Z,8.87
2019-05-19T10:05:48.448Z,8.80
2019-05-19T10:08:21.809Z,8.67
2019-05-19T10:11:00.733Z,8.67
2019-05-19T10:13:28.964Z,8.53
2019-05-19T10:15:57.224Z,8.63
2019-05-19T10:18:25.438Z,8.30
2019-05-19T10:20:53.700Z,8.17
2019-05-19T10:23:21.918Z,7.50
2019-05-19T10:25:50.139Z,8.67
2019-05-19T10:28:18.408Z,7.73
2019-05-19T10:30:46.650Z,8.50
2019-05-19T10:33:14.897Z,7.60
2019-05-19T10:35:43.050Z,7.90
2019-05-19T10:38:11.299Z,7.07
2019-05-19T10:40:39.518Z,7.80
2019-05-19T10:43:07.774Z,7.40
2019-05-19T10:45:37.653Z,6.90
2019-05-19T10:48:05.999Z,6.67
2019-05-19T10:50:34.270Z,7.40
2019-05-19T10:53:02.553Z,6.43
2019-05-19T10:55:36.640Z,6.87
2019-05-19T10:58:12.680Z,7.00
2019-05-19T11:00:39.974Z,7.10
2019-05-19T11:03:08.230Z,6.73
2019-05-19T11:05:36.478Z,6.67
2019-05-19T11:08:04.740Z,6.83
2019-05-19T11:10:32.979Z,6.63
2019-05-19T11:13:01.231Z,6.60
2019-05-19T11:15:29.466Z,7.37
2019-05-19T11:17:57.728Z,7.00
2019-05-19T11:20:26.048Z,6.80
2019-05-19T11:22:54.314Z,6.80
2019-05-19T11:25:33.410Z,6.27
2019-05-19T11:27:52.817Z,6.50
2019-05-19T11:30:21.252Z,6.33
2019-05-19T11:32:49.584Z,6.47
2019-05-19T11:35:17.836Z,5.78
2019-05-19T11:37:46.104Z,6.20
2019-05-19T11:40:14.322Z,6.10
2019-05-19T11:42:42.652Z,5.97
2019-05-19T11:45:11.021Z,6.20
2019-05-19T11:47:39.264Z,5.60
2019-05-19T11:50:07.964Z,5.85
2019-05-19T11:52:36.184Z,6.30
2019-05-19T11:55:05.614Z,6.12
2019-05-19T11:57:33.842Z,6.77
2019-05-19T12:00:02.200Z,6.43
2019-05-19T12:02:30.448Z,6.97
2019-05-19T12:04:58.708Z,6.30
2019-05-19T12:07:26.951Z,6.37
2019-05-19T12:09:55.194Z,6.20
2019-05-19T12:12:23.370Z,5.97
2019-05-19T12:14:51.614Z,6.53
2019-05-19T12:17:19.984Z,6.53
2019-05-19T12:19:48.238Z,6.10
2019-05-19T12:22:16.508Z,5.80
2019-05-19T12:24:44.767Z,5.80
2019-05-19T12:27:16.394Z,5.53
2019-05-19T12:29:44.634Z,6.77
2019-05-19T12:32:12.876Z,5.73
2019-05-19T12:34:41.192Z,5.10
2019-05-19T12:37:09.412Z,7.10
2019-05-19T12:39:37.670Z,5.40
2019-05-19T12:42:06.068Z,5.50
2019-05-19T12:44:34.318Z,4.53
2019-05-19T12:47:02.562Z,4.90
2019-05-19T12:49:30.813Z,4.70
2019-05-19T12:51:59.122Z,4.77
2019-05-19T12:54:27.432Z,4.90
2019-05-19T12:56:55.746Z,4.70
2019-05-19T12:59:24.097Z,4.10
2019-05-19T13:01:52.388Z,4.13
2019-05-19T13:04:20.644Z,3.90
2019-05-19T13:06:49.000Z,4.40
2019-05-19T13:09:17.263Z,4.57
2019-05-19T13:11:45.500Z,4.00
2019-05-19T13:14:13.738Z,5.07
2019-05-19T13:16:41.958Z,4.97
2019-05-19T13:19:10.193Z,4.63
2019-05-19T13:21:38.608Z,4.70
2019-05-19T13:24:06.809Z,4.63
2019-05-19T13:26:35.070Z,4.97
2019-05-19T13:29:04.253Z,4.47
2019-05-19T13:31:32.503Z,4.50
2019-05-19T13:34:00.738Z,4.60
2019-05-19T13:36:28.986Z,4.27
2019-05-19T13:38:57.218Z,3.40
2019-05-19T13:41:25.484Z,3.97
2019-05-19T13:43:53.694Z,4.03
2019-05-19T13:46:21.962Z,4.67
2019-05-19T13:48:50.171Z,4.40
2019-05-19T13:51:18.423Z,3.60
2019-05-19T13:53:46.678Z,4.00
2019-05-19T13:56:14.923Z,4.10
2019-05-19T13:58:43.161Z,4.30
2019-05-19T14:01:11.402Z,4.30
2019-05-19T14:03:39.648Z,4.53
2019-05-19T14:06:07.894Z,4.40
2019-05-19T14:08:36.210Z,4.40
2019-05-19T14:11:04.507Z,4.30
2019-05-19T14:13:32.724Z,4.63
2019-05-19T14:16:00.910Z,4.00
2019-05-19T14:18:29.177Z,4.10
2019-05-19T14:20:57.470Z,4.13
2019-05-19T14:23:25.709Z,3.50
2019-05-19T14:25:53.934Z,3.33
2019-05-19T14:28:22.260Z,3.43
2019-05-19T14:30:50.482Z,3.53
2019-05-19T14:33:18.728Z,3.37
2019-05-19T14:35:46.960Z,3.63
2019-05-19T14:38:15.240Z,3.80
2019-05-19T14:40:43.646Z,4.00
2019-05-19T14:43:11.868Z,3.80
2019-05-19T14:45:40.143Z,3.50
2019-05-19T14:48:08.330Z,3.50
2019-05-19T14:50:36.505Z,3.60
2019-05-19T14:53:04.854Z,3.60
2019-05-19T14:55:33.048Z,4.00
2019-05-19T14:58:01.264Z,3.80
2019-05-19T15:00:29.538Z,4.10
2019-05-19T15:02:57.766Z,4.37
2019-05-19T15:05:26.000Z,4.27
2019-05-19T15:07:54.257Z,4.10
2019-05-19T15:10:22.755Z,4.00
2019-05-19T15:12:50.992Z,4.23
2019-05-19T15:15:38.577Z,4.20
2019-05-19T15:18:06.832Z,3.80
2019-05-19T15:20:35.055Z,4.27
2019-05-19T15:23:03.286Z,3.83
2019-05-19T15:25:31.519Z,4.07
2019-05-19T15:28:04.420Z,3.70
2019-05-19T15:30:29.626Z,4.10
2019-05-19T15:32:57.850Z,3.90
2019-05-19T15:35:26.116Z,4.07
2019-05-19T15:37:54.338Z,3.90
2019-05-19T15:40:22.562Z,3.80
2019-05-19T15:42:50.716Z,3.90
2019-05-19T15:45:18.928Z,4.57
2019-05-19T15:47:47.186Z,4.10
2019-05-19T15:50:15.878Z,4.23
2019-05-19T15:52:44.098Z,4.00
2019-05-19T15:55:12.448Z,3.70
2019-05-19T15:57:40.654Z,4.13
2019-05-19T16:00:09.285Z,4.10
2019-05-19T16:02:37.662Z,3.87
2019-05-19T16:05:06.358Z,4.10
2019-05-19T16:07:34.580Z,4.00
2019-05-19T16:10:03.952Z,3.90
2019-05-19T16:12:32.168Z,3.80
2019-05-19T16:15:00.303Z,4.07
2019-05-19T16:17:28.462Z,3.90
2019-05-19T16:19:56.694Z,3.80
2019-05-19T16:22:24.932Z,3.97
2019-05-19T16:24:53.140Z,4.27
2019-05-19T16:27:21.306Z,4.40
2019-05-19T16:29:49.449Z,4.23
2019-05-19T16:32:17.628Z,4.30
2019-05-19T16:34:45.874Z,3.67
2019-05-19T16:37:14.111Z,3.87
2019-05-19T16:39:42.330Z,4.30
2019-05-19T16:42:10.569Z,3.90
2019-05-19T16:44:38.727Z,4.77
2019-05-19T16:47:06.958Z,8.60
2019-05-19T16:49:35.196Z,5.23
2019-05-19T16:52:03.430Z,4.57
2019-05-19T16:54:33.291Z,4.47
2019-05-19T16:57:01.624Z,3.90
2019-05-19T16:59:29.834Z,4.40
2019-05-19T17:01:58.002Z,4.30
2019-05-19T17:04:26.214Z,4.63
2019-05-19T17:06:54.539Z,4.73
2019-05-19T17:09:22.795Z,4.27
2019-05-19T17:11:51.018Z,4.00
2019-05-19T17:14:19.240Z,4.50
2019-05-19T17:16:47.516Z,5.70
2019-05-19T17:19:15.730Z,4.60
2019-05-19T17:21:43.868Z,5.13
2019-05-19T17:24:12.018Z,5.00
2019-05-19T17:26:40.244Z,5.03
2019-05-19T17:29:08.470Z,5.20
2019-05-19T17:31:36.608Z,5.33
2019-05-19T17:34:04.770Z,5.47
2019-05-19T17:36:32.926Z,6.00
2019-05-19T17:39:01.180Z,4.90
2019-05-19T17:41:29.396Z,5.27
2019-05-19T17:43:57.610Z,5.77
2019-05-19T17:46:26.563Z,5.60
2019-05-19T17:48:54.804Z,5.57
2019-05-19T17:51:23.036Z,5.47
2019-05-19T17:53:51.289Z,5.30
2019-05-19T17:56:20.389Z,8.57
2019-05-19T17:58:48.620Z,5.30
2019-05-19T18:01:16.842Z,5.23
2019-05-19T18:03:45.259Z,5.83
2019-05-19T18:06:13.524Z,4.87
2019-05-19T18:08:41.740Z,4.90
2019-05-19T18:11:10.030Z,4.70
2019-05-19T18:13:38.187Z,4.83
2019-05-19T18:16:06.425Z,4.90
2019-05-19T18:18:34.678Z,5.27
2019-05-19T18:21:02.899Z,5.23
2019-05-19T18:23:31.176Z,4.77
2019-05-19T18:25:59.426Z,5.33
2019-05-19T18:28:27.646Z,5.87
2019-05-19T18:30:55.872Z,4.87
2019-05-19T18:33:24.017Z,4.77
2019-05-19T18:35:52.259Z,4.93
2019-05-19T18:38:20.478Z,5.33
2019-05-19T18:40:48.650Z,4.40
2019-05-19T18:43:16.882Z,4.50
2019-05-19T18:45:45.118Z,4.43
2019-05-19T18:48:13.356Z,4.63
2019-05-19T18:50:41.591Z,5.10
2019-05-19T18:53:09.842Z,4.40
2019-05-19T18:55:38.058Z,4.40
2019-05-19T18:58:06.297Z,4.97
2019-05-19T19:00:35.601Z,4.93
2019-05-19T19:03:05.076Z,5.47
2019-05-19T19:05:33.354Z,5.33
2019-05-19T19:08:01.713Z,4.50
2019-05-19T19:10:29.947Z,5.60
2019-05-19T19:12:58.311Z,4.03
2019-05-19T19:15:26.486Z,4.40
2019-05-19T19:17:54.776Z,4.70
2019-05-19T19:20:22.925Z,4.03
2019-05-19T19:22:51.222Z,6.67
2019-05-19T19:25:19.556Z,4.60
2019-05-19T19:27:47.897Z,4.60
2019-05-19T19:30:16.285Z,5.90
2019-05-19T19:32:46.908Z,5.13
2019-05-19T19:35:15.160Z,4.43
2019-05-19T19:37:43.394Z,5.90
2019-05-19T19:40:12.089Z,5.43
2019-05-19T19:42:40.342Z,5.93
2019-05-19T19:45:08.759Z,7.33
2019-05-19T19:47:38.536Z,5.00
2019-05-19T19:50:06.946Z,5.80
2019-05-19T19:52:35.177Z,4.53
2019-05-19T19:55:27.186Z,5.73
2019-05-19T19:57:55.502Z,5.13
2019-05-19T20:00:25.285Z,5.23
2019-05-19T20:02:53.633Z,5.73
2019-05-19T20:05:21.892Z,5.90
2019-05-19T20:07:50.195Z,5.80
2019-05-19T20:10:22.925Z,6.30
2019-05-19T20:12:51.179Z,5.37
2019-05-19T20:15:19.396Z,5.70
2019-05-19T20:17:48.186Z,5.77
2019-05-19T20:20:16.374Z,5.60
2019-05-19T20:22:44.615Z,5.60
2019-05-19T20:25:12.923Z,5.70
2019-05-19T20:27:41.204Z,6.13
2019-05-19T20:30:09.699Z,6.00
2019-05-19T20:32:37.982Z,7.43
2019-05-19T20:35:06.359Z,6.10
2019-05-19T20:37:35.582Z,6.23
2019-05-19T20:40:05.192Z,8.13
2019-05-19T20:42:33.470Z,6.40
2019-05-19T20:45:01.672Z,6.37
2019-05-19T20:47:29.866Z,6.97
2019-05-19T20:49:58.122Z,9.43
2019-05-19T20:52:26.383Z,6.70
2019-05-19T20:54:54.543Z,6.57
2019-05-19T20:57:22.787Z,6.50
2019-05-19T20:59:51.027Z,6.70
2019-05-19T21:02:19.258Z,6.23
2019-05-19T21:04:47.502Z,6.30
2019-05-19T21:07:15.780Z,6.93
2019-05-19T21:09:44.007Z,6.33
2019-05-19T21:12:12.272Z,6.30
2019-05-19T21:14:40.490Z,6.37
2019-05-19T21:17:08.741Z,6.33
2019-05-19T21:19:37.010Z,6.50
2019-05-19T21:22:05.245Z,6.20
2019-05-19T21:24:33.490Z,6.40
2019-05-19T21:27:01.704Z,6.03
2019-05-19T21:29:29.914Z,6.27
2019-05-19T21:31:58.126Z,6.50
2019-05-19T21:34:26.306Z,6.17
2019-05-19T21:36:54.571Z,6.20
2019-05-19T21:39:22.802Z,6.40
2019-05-19T21:41:51.031Z,6.67
2019-05-19T21:44:19.265Z,7.47
2019-05-19T21:46:47.519Z,6.60
2019-05-19T21:49:15.670Z,6.90
2019-05-19T21:51:43.910Z,7.10
2019-05-19T21:54:12.064Z,6.40
2019-05-19T21:56:40.329Z,6.50
2019-05-19T21:59:08.542Z,7.50
2019-05-19T22:01:36.766Z,6.87
2019-05-19T22:04:04.968Z,7.60
2019-05-19T22:06:34.808Z,6.70
2019-05-19T22:09:04.202Z,6.83
2019-05-19T22:11:32.438Z,7.40
2019-05-19T22:14:00.600Z,7.13
2019-05-19T22:16:28.842Z,7.63
2019-05-19T22:18:57.065Z,7.27
2019-05-19T22:21:25.293Z,8.30
2019-05-19T22:23:53.532Z,7.17
2019-05-19T22:26:22.134Z,7.30
2019-05-19T22:28:50.376Z,6.67
2019-05-19T22:31:18.688Z,7.63
2019-05-19T22:33:46.902Z,7.57
2019-05-19T22:36:15.234Z,7.33
2019-05-19T22:38:43.462Z,7.47
2019-05-19T22:41:11.700Z,8.73
2019-05-19T22:43:39.926Z,6.90
2019-05-19T22:46:08.170Z,7.33
2019-05-19T22:48:36.402Z,7.90
2019-05-19T22:51:04.628Z,7.60
2019-05-19T22:53:32.940Z,7.43
2019-05-19T22:56:01.182Z,8.90
2019-05-19T22:58:29.321Z,7.40
2019-05-19T23:00:57.480Z,8.33
2019-05-19T23:03:25.982Z,7.27
2019-05-19T23:05:54.243Z,7.67
2019-05-19T23:08:22.476Z,7.70
2019-05-19T23:10:50.707Z,7.33
2019-05-19T23:13:18.934Z,8.20
2019-05-19T23:15:47.174Z,7.77
2019-05-19T23:18:15.337Z,7.67
2019-05-19T23:20:43.560Z,7.37
2019-05-19T23:23:11.795Z,8.00
2019-05-19T23:25:40.153Z,7.60
2019-05-19T23:28:08.383Z,7.40
2019-05-19T23:30:36.594Z,8.20
2019-05-19T23:33:04.856Z,7.43
2019-05-19T23:35:33.238Z,7.53
2019-05-19T23:38:01.420Z,7.90
2019-05-19T23:40:29.629Z,7.17
2019-05-19T23:42:57.847Z,7.27
2019-05-19T23:45:26.096Z,7.53
2019-05-19T23:47:54.328Z,9.80
2019-05-19T23:50:22.471Z,7.80
2019-05-19T23:52:50.743Z,7.80
2019-05-19T23:55:18.950Z,7.67
2019-05-19T23:57:47.202Z,7.67
